createdAt,value
2023-02-16T00:00:52.809Z,3.00
2023-02-16T00:01:52.800Z,1.30
2023-02-16T00:02:52.845Z,1.10
2023-02-16T00:03:52.910Z,1.90
2023-02-16T00:04:52.823Z,1.10
2023-02-16T00:05:52.797Z,1.50
2023-02-16T00:06:52.790Z,1.50
2023-02-16T00:07:52.795Z,1.50
2023-02-16T00:08:52.766Z,1.90
2023-02-16T00:09:52.765Z,1.60
2023-02-16T00:10:52.768Z,1.30
2023-02-16T00:11:52.775Z,2.50
2023-02-16T00:12:52.763Z,1.90
2023-02-16T00:13:52.758Z,1.80
2023-02-16T00:14:52.736Z,1.50
2023-02-16T00:15:52.811Z,1.10
2023-02-16T00:16:52.745Z,1.30
2023-02-16T00:17:52.750Z,1.40
2023-02-16T00:18:52.786Z,1.10
2023-02-16T00:19:52.735Z,1.00
2023-02-16T00:20:52.711Z,1.30
2023-02-16T00:21:52.718Z,2.60
2023-02-16T00:22:52.710Z,1.70
2023-02-16T00:23:52.710Z,1.90
2023-02-16T00:24:52.695Z,1.80
2023-02-16T00:25:52.711Z,1.90
2023-02-16T00:26:52.711Z,1.50
2023-02-16T00:27:52.678Z,2.00
2023-02-16T00:28:52.673Z,5.40
2023-02-16T00:29:52.709Z,3.90
2023-02-16T00:30:52.899Z,1.50
2023-02-16T00:31:52.840Z,1.40
2023-02-16T00:32:52.668Z,1.70
2023-02-16T00:33:52.667Z,1.80
2023-02-16T00:34:52.671Z,1.80
2023-02-16T00:35:52.662Z,1.60
2023-02-16T00:36:52.635Z,1.10
2023-02-16T00:37:52.649Z,1.60
2023-02-16T00:38:52.636Z,3.90
2023-02-16T00:39:52.622Z,2.50
2023-02-16T00:40:52.630Z,1.40
2023-02-16T00:41:52.634Z,2.20
2023-02-16T00:42:52.626Z,4.00
2023-02-16T00:43:52.625Z,2.60
2023-02-16T00:44:52.596Z,1.30
2023-02-16T00:45:52.629Z,2.90
2023-02-16T00:46:52.595Z,1.30
2023-02-16T00:47:52.606Z,1.00
2023-02-16T00:48:52.610Z,2.00
2023-02-16T00:49:52.585Z,2.00
2023-02-16T00:50:52.598Z,2.30
2023-02-16T00:51:52.569Z,1.60
2023-02-16T00:52:52.575Z,3.00
2023-02-16T00:53:52.575Z,2.70
2023-02-16T00:54:52.571Z,1.10
2023-02-16T00:55:52.550Z,3.10
2023-02-16T00:56:52.541Z,3.30
2023-02-16T00:57:52.558Z,1.60
2023-02-16T00:58:52.549Z,1.50
2023-02-16T00:59:52.549Z,3.10
2023-02-16T01:00:52.542Z,1.40
2023-02-16T01:01:52.620Z,2.20
2023-02-16T01:02:52.526Z,1.30
2023-02-16T01:03:52.524Z,1.40
2023-02-16T01:04:52.563Z,1.90
2023-02-16T01:05:52.515Z,1.90
2023-02-16T01:06:52.508Z,2.40
2023-02-16T01:07:52.501Z,3.00
2023-02-16T01:08:52.478Z,2.80
2023-02-16T01:09:52.479Z,1.90
2023-02-16T01:10:52.488Z,3.00
2023-02-16T01:11:52.488Z,4.80
2023-02-16T01:12:52.482Z,1.30
2023-02-16T01:13:52.471Z,2.90
2023-02-16T01:14:52.448Z,2.10
2023-02-16T01:15:52.538Z,2.50
2023-02-16T01:16:52.451Z,1.50
2023-02-16T01:17:52.448Z,2.40
2023-02-16T01:18:52.432Z,3.10
2023-02-16T01:19:52.441Z,1.40
2023-02-16T01:20:52.431Z,2.20
2023-02-16T01:21:52.431Z,4.10
2023-02-16T01:22:52.442Z,3.90
2023-02-16T01:23:52.404Z,1.30
2023-02-16T01:24:52.406Z,1.30
2023-02-16T01:25:52.409Z,2.10
2023-02-16T01:26:52.387Z,1.70
2023-02-16T01:27:52.393Z,2.30
2023-02-16T01:28:52.388Z,2.60
2023-02-16T01:29:52.420Z,2.20
2023-02-16T01:30:52.482Z,2.50
2023-02-16T01:31:52.495Z,2.00
2023-02-16T01:32:52.427Z,1.60
2023-02-16T01:33:52.370Z,1.50
2023-02-16T01:34:52.348Z,1.40
2023-02-16T01:35:52.366Z,2.00
2023-02-16T01:36:52.341Z,1.70
2023-02-16T01:37:52.336Z,1.60
2023-02-16T01:38:52.382Z,2.30
2023-02-16T01:39:52.343Z,1.20
2023-02-16T01:40:52.323Z,1.60
2023-02-16T01:41:52.333Z,2.30
2023-02-16T01:42:52.314Z,3.00
2023-02-16T01:43:52.322Z,1.20
2023-02-16T01:44:52.352Z,1.90
2023-02-16T01:45:52.291Z,1.30
2023-02-16T01:46:52.372Z,1.40
2023-02-16T01:47:52.300Z,1.80
2023-02-16T01:48:52.288Z,1.30
2023-02-16T01:49:52.308Z,2.50
2023-02-16T01:50:52.313Z,4.70
2023-02-16T01:51:52.268Z,1.30
2023-02-16T01:52:52.278Z,2.00
2023-02-16T01:53:52.261Z,2.50
2023-02-16T01:54:52.290Z,1.40
2023-02-16T01:55:52.250Z,1.50
2023-02-16T01:56:52.305Z,1.10
2023-02-16T01:57:52.252Z,1.80
2023-02-16T01:58:52.246Z,1.60
2023-02-16T01:59:52.258Z,1.90
2023-02-16T02:00:52.260Z,1.40
2023-02-16T02:01:52.271Z,2.60
2023-02-16T02:02:52.250Z,4.40
2023-02-16T02:03:52.231Z,1.40
2023-02-16T02:04:52.218Z,1.30
2023-02-16T02:05:52.211Z,1.40
2023-02-16T02:06:52.216Z,1.50
2023-02-16T02:07:52.202Z,2.00
2023-02-16T02:08:52.200Z,1.40
2023-02-16T02:09:52.193Z,1.90
2023-02-16T02:10:52.220Z,2.90
2023-02-16T02:11:52.186Z,2.70
2023-02-16T02:12:52.187Z,1.80
2023-02-16T02:13:52.168Z,3.30
2023-02-16T02:14:52.159Z,2.90
2023-02-16T02:15:52.189Z,1.70
2023-02-16T02:16:52.141Z,4.50
2023-02-16T02:17:52.159Z,1.30
2023-02-16T02:18:52.157Z,1.30
2023-02-16T02:19:52.130Z,5.00
2023-02-16T02:20:52.124Z,2.70
2023-02-16T02:21:52.114Z,1.80
2023-02-16T02:22:52.126Z,1.30
2023-02-16T02:23:52.112Z,1.30
2023-02-16T02:24:52.128Z,1.60
2023-02-16T02:25:52.108Z,1.50
2023-02-16T02:26:52.127Z,2.00
2023-02-16T02:27:52.085Z,1.80
2023-02-16T02:28:52.085Z,1.50
2023-02-16T02:29:52.138Z,1.80
2023-02-16T02:30:52.109Z,2.20
2023-02-16T02:31:52.195Z,1.30
2023-02-16T02:32:52.078Z,2.50
2023-02-16T02:33:52.064Z,3.90
2023-02-16T02:34:52.064Z,1.40
2023-02-16T02:35:52.051Z,1.60
2023-02-16T02:36:52.074Z,1.40
2023-02-16T02:37:52.053Z,1.40
2023-02-16T02:38:52.038Z,1.80
2023-02-16T02:39:52.043Z,1.50
2023-02-16T02:40:53.854Z,1.80
2023-02-16T02:41:52.015Z,1.20
2023-02-16T02:42:52.048Z,1.80
2023-02-16T02:43:52.017Z,2.10
2023-02-16T02:44:52.020Z,4.30
2023-02-16T02:45:51.998Z,2.70
2023-02-16T02:46:52.025Z,1.90
2023-02-16T02:47:52.000Z,2.00
2023-02-16T02:48:51.996Z,2.30
2023-02-16T02:49:51.992Z,1.60
2023-02-16T02:50:51.988Z,1.30
2023-02-16T02:51:51.978Z,1.30
2023-02-16T02:52:51.969Z,2.70
2023-02-16T02:53:51.987Z,1.40
2023-02-16T02:54:51.964Z,2.10
2023-02-16T02:55:51.962Z,1.80
2023-02-16T02:56:51.945Z,5.00
2023-02-16T02:57:51.974Z,1.20
2023-02-16T02:58:51.959Z,1.70
2023-02-16T02:59:51.941Z,1.20
2023-02-16T03:00:51.991Z,2.00
2023-02-16T03:01:51.962Z,1.10
2023-02-16T03:02:51.925Z,3.80
2023-02-16T03:03:51.920Z,1.70
2023-02-16T03:04:51.905Z,2.20
2023-02-16T03:05:51.904Z,1.70
2023-02-16T03:06:51.927Z,2.50
2023-02-16T03:07:51.884Z,1.20
2023-02-16T03:08:51.896Z,1.80
2023-02-16T03:09:51.904Z,1.30
2023-02-16T03:10:51.877Z,1.20
2023-02-16T03:11:51.867Z,1.80
2023-02-16T03:12:51.866Z,1.60
2023-02-16T03:13:51.876Z,1.40
2023-02-16T03:14:51.896Z,1.40
2023-02-16T03:15:51.842Z,1.50
2023-02-16T03:16:51.883Z,1.80
2023-02-16T03:17:51.845Z,4.70
2023-02-16T03:18:51.834Z,1.80
2023-02-16T03:19:51.863Z,2.70
2023-02-16T03:20:51.820Z,1.50
2023-02-16T03:21:51.832Z,2.10
2023-02-16T03:22:51.836Z,3.30
2023-02-16T03:23:51.819Z,3.00
2023-02-16T03:24:51.815Z,1.40
2023-02-16T03:25:51.809Z,3.50
2023-02-16T03:26:51.794Z,1.50
2023-02-16T03:27:51.794Z,2.00
2023-02-16T03:28:51.777Z,1.70
2023-02-16T03:29:51.842Z,1.40
2023-02-16T03:30:51.854Z,7.20
2023-02-16T03:31:51.827Z,6.00
2023-02-16T03:32:51.759Z,2.00
2023-02-16T03:33:51.744Z,1.50
2023-02-16T03:34:51.753Z,2.30
2023-02-16T03:35:51.740Z,1.80
2023-02-16T03:37:34.904Z,3.70
2023-02-16T03:38:34.908Z,1.60
2023-02-16T03:39:34.870Z,2.30
2023-02-16T03:40:34.879Z,1.10
2023-02-16T03:41:34.884Z,1.60
2023-02-16T03:42:34.854Z,1.20
2023-02-16T03:43:34.860Z,2.70
2023-02-16T03:44:34.853Z,3.50
2023-02-16T03:45:34.971Z,1.40
2023-02-16T03:46:34.878Z,2.60
2023-02-16T03:47:34.830Z,2.40
2023-02-16T03:48:34.819Z,2.30
2023-02-16T03:49:34.823Z,1.30
2023-02-16T03:50:34.815Z,2.80
2023-02-16T03:51:34.822Z,2.60
2023-02-16T03:52:34.810Z,3.10
2023-02-16T03:53:34.811Z,2.50
2023-02-16T03:54:34.806Z,1.50
2023-02-16T03:55:34.801Z,1.80
2023-02-16T03:56:34.791Z,2.00
2023-02-16T03:57:34.782Z,2.20
2023-02-16T03:58:34.769Z,2.90
2023-02-16T03:59:34.795Z,1.60
2023-02-16T04:00:34.780Z,1.70
2023-02-16T04:01:34.786Z,6.10
2023-02-16T04:02:34.768Z,2.40
2023-02-16T04:03:34.756Z,1.80
2023-02-16T04:04:34.847Z,2.90
2023-02-16T04:05:34.752Z,1.60
2023-02-16T04:06:34.735Z,1.40
2023-02-16T04:07:34.741Z,2.50
2023-02-16T04:08:34.717Z,1.30
2023-02-16T04:09:34.729Z,2.00
2023-02-16T04:10:34.723Z,1.10
2023-02-16T04:11:34.725Z,1.90
2023-02-16T04:12:34.696Z,2.00
2023-02-16T04:13:34.714Z,1.60
2023-02-16T04:14:34.702Z,2.00
2023-02-16T04:15:34.691Z,1.50
2023-02-16T04:16:34.746Z,2.10
2023-02-16T04:17:34.687Z,2.20
2023-02-16T04:18:34.698Z,1.10
2023-02-16T04:19:34.672Z,1.40
2023-02-16T04:20:34.655Z,1.70
2023-02-16T04:21:34.672Z,1.60
2023-02-16T04:22:34.664Z,4.80
2023-02-16T04:23:34.649Z,2.30
2023-02-16T04:24:34.660Z,1.30
2023-02-16T04:25:34.650Z,1.40
2023-02-16T04:26:34.634Z,2.10
2023-02-16T04:27:34.626Z,1.60
2023-02-16T04:28:34.631Z,2.10
2023-02-16T04:29:34.621Z,2.30
2023-02-16T04:30:34.802Z,1.90
2023-02-16T04:31:34.774Z,2.60
2023-02-16T04:32:34.616Z,1.30
2023-02-16T04:33:34.596Z,1.30
2023-02-16T04:34:34.606Z,1.80
2023-02-16T04:35:34.595Z,2.40
2023-02-16T04:36:34.588Z,1.90
2023-02-16T04:37:34.581Z,2.10
2023-02-16T04:38:34.577Z,2.50
2023-02-16T04:39:34.571Z,2.30
2023-02-16T04:40:34.577Z,2.20
2023-02-16T04:41:34.549Z,2.70
2023-02-16T04:42:34.549Z,7.10
2023-02-16T04:43:34.549Z,2.20
2023-02-16T04:44:34.554Z,1.70
2023-02-16T04:45:34.532Z,1.40
2023-02-16T04:46:34.557Z,3.30
2023-02-16T04:47:34.514Z,2.10
2023-02-16T04:48:34.507Z,1.40
2023-02-16T04:49:34.512Z,2.00
2023-02-16T04:50:34.526Z,1.70
2023-02-16T04:51:34.509Z,2.00
2023-02-16T04:52:34.512Z,1.50
2023-02-16T04:53:34.504Z,1.50
2023-02-16T04:54:34.503Z,1.90
2023-02-16T04:55:34.488Z,1.20
2023-02-16T04:56:34.478Z,1.50
2023-02-16T04:57:34.486Z,2.30
2023-02-16T04:58:34.472Z,1.60
2023-02-16T04:59:34.450Z,1.30
2023-02-16T05:00:36.489Z,2.90
2023-02-16T05:01:34.556Z,4.00
2023-02-16T05:02:34.444Z,2.60
2023-02-16T05:03:34.431Z,1.40
2023-02-16T05:04:34.530Z,2.40
2023-02-16T05:05:34.433Z,1.90
2023-02-16T05:06:34.452Z,2.30
2023-02-16T05:07:34.429Z,3.00
2023-02-16T05:08:34.405Z,2.60
2023-02-16T05:09:34.418Z,1.30
2023-02-16T05:10:34.394Z,1.10
2023-02-16T05:11:34.396Z,2.00
2023-02-16T05:12:34.393Z,1.30
2023-02-16T05:13:34.380Z,2.00
2023-02-16T05:14:34.381Z,5.30
2023-02-16T05:15:34.415Z,3.00
2023-02-16T05:16:34.368Z,1.70
2023-02-16T05:17:34.378Z,1.40
2023-02-16T05:18:34.349Z,7.40
2023-02-16T05:19:34.358Z,5.50
2023-02-16T05:20:34.340Z,1.70
2023-02-16T05:21:34.353Z,1.40
2023-02-16T05:22:34.434Z,1.70
2023-02-16T05:23:34.339Z,1.40
2023-02-16T05:24:34.328Z,1.90
2023-02-16T05:25:34.314Z,2.80
2023-02-16T05:26:34.303Z,2.10
2023-02-16T05:27:34.326Z,1.70
2023-02-16T05:28:34.339Z,1.80
2023-02-16T05:29:34.293Z,4.90
2023-02-16T05:30:34.447Z,4.40
2023-02-16T05:31:34.442Z,1.30
2023-02-16T05:32:34.293Z,1.50
2023-02-16T05:33:34.272Z,3.20
2023-02-16T05:34:34.288Z,5.90
2023-02-16T05:35:34.284Z,1.60
2023-02-16T05:36:34.253Z,1.50
2023-02-16T05:37:34.267Z,3.30
2023-02-16T05:38:34.273Z,1.90
2023-02-16T05:39:34.244Z,3.40
2023-02-16T05:40:34.273Z,1.50
2023-02-16T05:41:34.252Z,7.70
2023-02-16T05:42:34.243Z,2.70
2023-02-16T05:43:34.227Z,1.30
2023-02-16T05:44:34.230Z,2.20
2023-02-16T05:45:34.225Z,1.20
2023-02-16T05:46:34.353Z,1.50
2023-02-16T05:47:34.205Z,1.50
2023-02-16T05:48:34.208Z,3.60
2023-02-16T05:49:34.196Z,1.30
2023-02-16T05:50:34.186Z,3.70
2023-02-16T05:51:34.187Z,5.60
2023-02-16T05:52:34.186Z,2.00
2023-02-16T05:53:34.179Z,1.30
2023-02-16T05:54:34.199Z,3.50
2023-02-16T05:55:34.165Z,1.30
2023-02-16T05:56:34.165Z,1.70
2023-02-16T05:57:34.162Z,1.50
2023-02-16T05:58:34.151Z,1.70
2023-02-16T05:59:34.162Z,2.60
2023-02-16T06:00:34.142Z,1.00
2023-02-16T06:01:34.154Z,2.70
2023-02-16T06:02:34.177Z,1.70
2023-02-16T06:03:34.171Z,1.80
2023-02-16T06:04:34.119Z,1.30
2023-02-16T06:05:34.122Z,1.80
2023-02-16T06:06:34.120Z,1.20
2023-02-16T06:07:34.113Z,2.60
2023-02-16T06:08:34.100Z,1.40
2023-02-16T06:09:34.108Z,1.60
2023-02-16T06:10:34.162Z,1.20
2023-02-16T06:11:34.094Z,1.40
2023-02-16T06:12:34.084Z,1.70
2023-02-16T06:13:34.081Z,1.60
2023-02-16T06:14:34.098Z,2.10
2023-02-16T06:15:34.085Z,1.50
2023-02-16T06:16:34.070Z,1.90
2023-02-16T06:17:34.083Z,2.20
2023-02-16T06:18:34.067Z,2.10
2023-02-16T06:19:34.080Z,1.20
2023-02-16T06:20:34.059Z,1.70
2023-02-16T06:21:34.046Z,1.70
2023-02-16T06:22:34.043Z,1.40
2023-02-16T06:23:34.053Z,1.50
2023-02-16T06:24:34.050Z,1.60
2023-02-16T06:25:34.024Z,1.30
2023-02-16T06:26:34.057Z,1.20
2023-02-16T06:27:34.013Z,1.60
2023-02-16T06:28:34.015Z,1.70
2023-02-16T06:29:34.019Z,1.80
2023-02-16T06:30:34.154Z,1.50
2023-02-16T06:31:36.388Z,1.60
2023-02-16T06:32:34.031Z,5.60
2023-02-16T06:33:33.988Z,29.40
2023-02-16T06:34:33.993Z,84.60
2023-02-16T06:35:33.978Z,109.90
2023-02-16T06:36:34.012Z,74.10
2023-02-16T06:37:33.988Z,91.80
2023-02-16T06:38:34.069Z,92.90
2023-02-16T06:39:34.001Z,67.90
2023-02-16T06:40:34.003Z,85.00
2023-02-16T06:41:33.967Z,94.00
2023-02-16T06:42:33.989Z,79.60
2023-02-16T06:43:33.943Z,94.80
2023-02-16T06:44:33.947Z,81.70
2023-02-16T06:45:33.943Z,67.30
2023-02-16T06:46:34.017Z,84.30
2023-02-16T06:47:33.939Z,61.70
2023-02-16T06:48:33.953Z,66.00
2023-02-16T06:49:33.971Z,76.70
2023-02-16T06:50:33.934Z,55.60
2023-02-16T06:51:33.910Z,55.40
2023-02-16T06:52:33.936Z,65.80
2023-02-16T06:53:33.917Z,64.50
2023-02-16T06:54:33.910Z,61.90
2023-02-16T06:55:33.905Z,68.10
2023-02-16T06:56:34.990Z,66.70
2023-02-16T06:57:33.896Z,69.50
2023-02-16T06:58:33.919Z,56.50
2023-02-16T06:59:33.882Z,56.60
2023-02-16T07:00:33.997Z,49.70
2023-02-16T07:01:33.891Z,39.10
2023-02-16T07:02:33.879Z,50.30
2023-02-16T07:03:33.910Z,52.90
2023-02-16T07:04:33.885Z,64.80
2023-02-16T07:05:33.874Z,64.70
2023-02-16T07:06:33.880Z,39.00
2023-02-16T07:07:33.879Z,13.10
2023-02-16T07:08:34.914Z,7.60
2023-02-16T07:09:33.846Z,17.50
2023-02-16T07:10:48.706Z,8.40
2023-02-16T07:11:33.837Z,10.30
2023-02-16T07:12:33.836Z,8.40
2023-02-16T07:13:33.851Z,11.40
2023-02-16T07:14:33.859Z,14.10
2023-02-16T07:15:33.835Z,15.40
2023-02-16T07:16:33.875Z,5.90
2023-02-16T07:17:33.801Z,5.70
2023-02-16T07:18:33.818Z,9.40
2023-02-16T07:19:33.871Z,5.50
2023-02-16T07:20:33.812Z,9.10
2023-02-16T07:21:33.775Z,6.90
2023-02-16T07:22:33.778Z,7.40
2023-02-16T07:23:33.832Z,7.80
2023-02-16T07:24:33.756Z,6.80
2023-02-16T07:25:35.943Z,4.70
2023-02-16T07:26:33.776Z,5.30
2023-02-16T07:27:33.774Z,3.20
2023-02-16T07:28:33.742Z,8.40
2023-02-16T07:29:33.728Z,6.00
2023-02-16T07:30:33.830Z,6.40
2023-02-16T07:31:33.846Z,7.90
2023-02-16T07:32:33.689Z,2.40
2023-02-16T07:33:33.689Z,5.60
2023-02-16T07:34:33.677Z,3.30
2023-02-16T07:35:33.657Z,6.40
2023-02-16T07:36:33.656Z,7.10
2023-02-16T07:37:33.649Z,5.90
2023-02-16T07:38:33.670Z,10.60
2023-02-16T07:39:33.621Z,5.40
2023-02-16T07:40:33.619Z,7.50
2023-02-16T07:41:33.603Z,3.10
2023-02-16T07:42:33.604Z,4.60
2023-02-16T07:43:33.581Z,6.20
2023-02-16T07:44:33.578Z,3.40
2023-02-16T07:45:33.601Z,3.70
2023-02-16T07:46:33.612Z,2.80
2023-02-16T07:47:33.548Z,4.90
2023-02-16T07:48:33.567Z,5.10
2023-02-16T07:49:33.520Z,3.20
2023-02-16T07:50:33.521Z,4.20
2023-02-16T07:51:33.499Z,4.10
2023-02-16T07:52:33.503Z,5.00
2023-02-16T07:53:33.481Z,3.70
2023-02-16T07:54:33.475Z,5.10
2023-02-16T07:55:33.451Z,3.10
2023-02-16T07:56:33.447Z,6.00
2023-02-16T07:57:33.447Z,3.30
2023-02-16T07:58:33.424Z,5.20
2023-02-16T07:59:33.421Z,6.40
2023-02-16T08:00:33.405Z,5.60
2023-02-16T08:01:33.402Z,6.50
2023-02-16T08:02:33.541Z,2.90
2023-02-16T08:03:33.382Z,3.00
2023-02-16T08:04:33.374Z,3.40
2023-02-16T08:05:33.345Z,6.20
2023-02-16T08:06:33.343Z,6.50
2023-02-16T08:07:33.324Z,2.60
2023-02-16T08:08:33.330Z,3.10
2023-02-16T08:09:33.310Z,6.90
2023-02-16T08:10:33.298Z,5.80
2023-02-16T08:11:33.297Z,5.20
2023-02-16T08:12:33.293Z,3.50
2023-02-16T08:13:33.272Z,4.70
2023-02-16T08:14:33.268Z,4.40
2023-02-16T08:15:33.256Z,5.10
2023-02-16T08:16:33.285Z,1.90
2023-02-16T08:17:33.217Z,9.30
2023-02-16T08:18:33.246Z,2.90
2023-02-16T08:19:33.201Z,3.00
2023-02-16T08:20:51.180Z,2.20
2023-02-16T08:21:33.179Z,3.30
2023-02-16T08:22:33.178Z,2.90
2023-02-16T08:23:33.157Z,9.40
2023-02-16T08:24:33.166Z,3.60
2023-02-16T08:25:33.140Z,6.50
2023-02-16T08:26:33.147Z,8.50
2023-02-16T08:27:33.130Z,1.90
2023-02-16T08:28:33.117Z,2.10
2023-02-16T08:29:33.165Z,2.40
2023-02-16T08:30:33.166Z,2.90
2023-02-16T08:31:33.216Z,1.70
2023-02-16T08:32:33.093Z,2.30
2023-02-16T08:33:33.065Z,2.00
2023-02-16T08:34:33.081Z,2.40
2023-02-16T08:35:33.064Z,1.50
2023-02-16T08:36:33.050Z,2.40
2023-02-16T08:37:33.040Z,3.00
2023-02-16T08:38:33.039Z,2.40
2023-02-16T08:39:33.019Z,4.00
2023-02-16T08:40:33.024Z,2.10
2023-02-16T08:41:33.025Z,2.50
2023-02-16T08:42:33.003Z,1.30
2023-02-16T08:43:33.006Z,1.90
2023-02-16T08:44:33.074Z,2.50
2023-02-16T08:45:33.032Z,2.20
2023-02-16T08:46:32.985Z,1.60
2023-02-16T08:47:32.952Z,2.60
2023-02-16T08:48:32.958Z,1.70
2023-02-16T08:49:32.975Z,1.80
2023-02-16T08:50:32.970Z,3.50
2023-02-16T08:51:32.930Z,2.20
2023-02-16T08:52:32.926Z,2.60
2023-02-16T08:53:32.926Z,2.00
2023-02-16T08:54:32.934Z,1.80
2023-02-16T08:55:32.891Z,2.60
2023-02-16T08:56:32.889Z,1.50
2023-02-16T08:57:32.879Z,1.30
2023-02-16T08:58:32.871Z,2.80
2023-02-16T08:59:32.892Z,1.90
2023-02-16T09:00:32.863Z,4.30
2023-02-16T09:01:32.917Z,1.60
2023-02-16T09:02:32.930Z,1.30
2023-02-16T09:03:32.849Z,1.50
2023-02-16T09:04:32.835Z,4.30
2023-02-16T09:05:32.833Z,2.20
2023-02-16T09:06:32.863Z,1.90
2023-02-16T09:07:32.814Z,2.70
2023-02-16T09:08:32.819Z,1.70
2023-02-16T09:09:32.822Z,1.60
2023-02-16T09:10:32.811Z,1.60
2023-02-16T09:11:32.784Z,1.50
2023-02-16T09:12:32.818Z,1.90
2023-02-16T09:13:32.810Z,1.50
2023-02-16T09:14:32.786Z,2.10
2023-02-16T09:15:32.768Z,1.70
2023-02-16T09:16:32.854Z,2.80
2023-02-16T09:17:32.754Z,2.00
2023-02-16T09:18:32.930Z,2.30
2023-02-16T09:19:32.741Z,3.70
2023-02-16T09:20:32.754Z,3.90
2023-02-16T09:21:32.755Z,1.60
2023-02-16T09:22:32.779Z,1.40
2023-02-16T09:23:32.726Z,1.80
2023-02-16T09:24:32.734Z,1.70
2023-02-16T09:25:32.712Z,1.30
2023-02-16T09:26:32.750Z,1.90
2023-02-16T09:27:32.699Z,2.20
2023-02-16T09:28:32.710Z,8.80
2023-02-16T09:29:32.735Z,1.50
2023-02-16T09:30:32.844Z,4.70
2023-02-16T09:31:32.840Z,1.60
2023-02-16T09:32:32.674Z,1.50
2023-02-16T09:33:32.680Z,2.10
2023-02-16T09:34:32.663Z,4.50
2023-02-16T09:35:32.658Z,1.40
2023-02-16T09:36:32.677Z,2.60
2023-02-16T09:37:32.644Z,5.00
2023-02-16T09:38:32.698Z,1.70
2023-02-16T09:39:32.653Z,2.50
2023-02-16T09:40:32.642Z,1.40
2023-02-16T09:41:32.648Z,2.10
2023-02-16T09:42:32.648Z,1.90
2023-02-16T09:43:32.622Z,1.50
2023-02-16T09:44:32.624Z,1.90
2023-02-16T09:45:32.602Z,1.50
2023-02-16T09:46:32.690Z,1.30
2023-02-16T09:47:32.606Z,1.30
2023-02-16T09:48:32.593Z,2.80
2023-02-16T09:49:32.604Z,2.70
2023-02-16T09:50:52.468Z,2.50
2023-02-16T09:51:34.770Z,4.50
2023-02-16T09:52:32.578Z,1.80
2023-02-16T09:53:32.562Z,3.60
2023-02-16T09:54:32.621Z,1.10
2023-02-16T09:55:32.558Z,1.70
2023-02-16T09:56:32.575Z,1.30
2023-02-16T09:57:32.546Z,1.30
2023-02-16T09:58:32.565Z,2.80
2023-02-16T09:59:32.544Z,3.30
2023-02-16T10:00:32.526Z,1.50
2023-02-16T10:01:32.606Z,1.90
2023-02-16T10:02:32.576Z,3.00
2023-02-16T10:03:32.508Z,2.10
2023-02-16T10:04:32.504Z,2.30
2023-02-16T10:05:32.513Z,2.10
2023-02-16T10:06:32.514Z,2.20
2023-02-16T10:07:32.492Z,1.90
2023-02-16T10:08:32.493Z,2.00
2023-02-16T10:09:32.488Z,2.60
2023-02-16T10:10:32.517Z,5.80
2023-02-16T10:11:32.486Z,3.40
2023-02-16T10:12:32.491Z,1.30
2023-02-16T10:13:32.458Z,1.40
2023-02-16T10:14:32.476Z,1.90
2023-02-16T10:15:32.488Z,3.10
2023-02-16T10:16:32.474Z,1.60
2023-02-16T10:17:32.452Z,1.60
2023-02-16T10:18:32.443Z,1.40
2023-02-16T10:19:32.428Z,1.80
2023-02-16T10:20:32.442Z,2.60
2023-02-16T10:21:35.065Z,1.10
2023-02-16T10:22:32.437Z,2.10
2023-02-16T10:23:32.409Z,3.60
2023-02-16T10:24:32.421Z,8.80
2023-02-16T10:25:33.839Z,2.10
2023-02-16T10:26:32.422Z,1.90
2023-02-16T10:27:32.403Z,1.80
2023-02-16T10:28:32.384Z,3.00
2023-02-16T10:29:32.380Z,3.40
2023-02-16T10:30:32.504Z,1.20
2023-02-16T10:31:32.553Z,1.70
2023-02-16T10:32:33.949Z,1.60
2023-02-16T10:33:32.370Z,2.00
2023-02-16T10:34:32.372Z,4.00
2023-02-16T10:35:32.358Z,2.20
2023-02-16T10:36:32.365Z,1.80
2023-02-16T10:37:32.348Z,2.90
2023-02-16T10:38:32.359Z,3.00
2023-02-16T10:39:32.353Z,4.90
2023-02-16T10:40:32.332Z,2.10
2023-02-16T10:41:32.337Z,2.40
2023-02-16T10:42:32.338Z,2.20
2023-02-16T10:43:32.327Z,1.50
2023-02-16T10:44:32.325Z,4.70
2023-02-16T10:45:32.326Z,1.30
2023-02-16T10:46:32.433Z,1.60
2023-02-16T10:47:32.309Z,1.60
2023-02-16T10:48:32.295Z,2.60
2023-02-16T10:49:32.335Z,2.60
2023-02-16T10:50:32.296Z,1.40
2023-02-16T10:51:32.284Z,1.70
2023-02-16T10:52:32.290Z,1.60
2023-02-16T10:53:32.290Z,1.70
2023-02-16T10:54:32.274Z,3.70
2023-02-16T10:55:32.286Z,2.80
2023-02-16T10:56:32.271Z,2.00
2023-02-16T10:57:32.282Z,3.60
2023-02-16T10:58:32.281Z,3.40
2023-02-16T10:59:32.252Z,1.60
2023-02-16T11:00:32.238Z,1.40
2023-02-16T11:01:32.292Z,1.80
2023-02-16T11:02:32.223Z,1.70
2023-02-16T11:03:32.246Z,2.30
2023-02-16T11:04:32.278Z,2.70
2023-02-16T11:05:32.285Z,4.10
2023-02-16T11:06:32.219Z,2.50
2023-02-16T11:07:32.205Z,3.00
2023-02-16T11:08:32.215Z,2.50
2023-02-16T11:09:32.213Z,4.10
2023-02-16T11:10:32.204Z,2.40
2023-02-16T11:11:32.188Z,1.20
2023-02-16T11:12:32.183Z,2.30
2023-02-16T11:13:32.182Z,2.20
2023-02-16T11:14:32.195Z,3.10
2023-02-16T11:15:32.170Z,1.60
2023-02-16T11:16:32.161Z,2.70
2023-02-16T11:17:32.171Z,8.30
2023-02-16T11:18:32.170Z,1.30
2023-02-16T11:19:32.148Z,1.90
2023-02-16T11:20:32.157Z,2.00
2023-02-16T11:21:32.157Z,1.90
2023-02-16T11:22:32.134Z,1.90
2023-02-16T11:23:35.562Z,1.60
2023-02-16T11:24:32.124Z,3.00
2023-02-16T11:25:32.142Z,2.00
2023-02-16T11:26:32.132Z,2.10
2023-02-16T11:27:32.143Z,2.30
2023-02-16T11:28:32.637Z,5.20
2023-02-16T11:29:32.118Z,7.70
2023-02-16T11:31:22.142Z,1.80
2023-02-16T11:32:21.972Z,2.00
2023-02-16T11:33:22.432Z,2.20
2023-02-16T11:34:21.976Z,2.10
2023-02-16T11:35:21.966Z,1.80
2023-02-16T11:36:22.017Z,2.20
2023-02-16T11:37:21.955Z,1.50
2023-02-16T11:38:21.952Z,5.60
2023-02-16T11:39:21.967Z,2.00
2023-02-16T11:40:21.948Z,1.30
2023-02-16T11:41:21.932Z,2.90
2023-02-16T11:42:21.938Z,1.50
2023-02-16T11:43:21.934Z,1.10
2023-02-16T11:44:21.929Z,1.40
2023-02-16T11:45:21.923Z,2.50
2023-02-16T11:46:21.983Z,1.50
2023-02-16T11:47:21.933Z,2.20
2023-02-16T11:48:21.901Z,3.50
2023-02-16T11:49:21.897Z,2.70
2023-02-16T11:50:21.897Z,1.20
2023-02-16T11:51:21.898Z,2.30
2023-02-16T11:52:21.872Z,3.00
2023-02-16T11:53:21.871Z,1.40
2023-02-16T11:54:21.879Z,2.60
2023-02-16T11:55:21.893Z,1.30
2023-02-16T11:56:21.890Z,1.30
2023-02-16T11:57:21.868Z,2.20
2023-02-16T11:58:21.840Z,2.80
2023-02-16T11:59:21.864Z,3.40
2023-02-16T12:00:21.836Z,1.70
2023-02-16T12:01:21.842Z,2.30
2023-02-16T12:02:21.838Z,1.40
2023-02-16T12:03:21.871Z,1.90
2023-02-16T12:04:21.813Z,1.50
2023-02-16T12:05:21.910Z,2.60
2023-02-16T12:06:21.806Z,1.20
2023-02-16T12:07:21.804Z,2.30
2023-02-16T12:08:21.823Z,1.40
2023-02-16T12:09:21.799Z,1.30
2023-02-16T12:10:21.804Z,2.10
2023-02-16T12:11:21.791Z,1.70
2023-02-16T12:12:21.797Z,1.90
2023-02-16T12:13:21.777Z,2.20
2023-02-16T12:14:21.766Z,2.00
2023-02-16T12:15:21.769Z,1.90
2023-02-16T12:16:21.809Z,2.30
2023-02-16T12:17:21.759Z,2.60
2023-02-16T12:18:21.762Z,1.50
2023-02-16T12:19:21.787Z,1.10
2023-02-16T12:20:21.743Z,1.90
2023-02-16T12:21:21.740Z,4.80
2023-02-16T12:22:21.746Z,1.20
2023-02-16T12:23:21.733Z,1.90
2023-02-16T12:24:21.745Z,3.40
2023-02-16T12:25:21.728Z,1.30
2023-02-16T12:26:21.753Z,1.20
2023-02-16T12:27:21.739Z,2.20
2023-02-16T12:28:21.719Z,2.20
2023-02-16T12:29:21.730Z,2.30
2023-02-16T12:30:21.806Z,1.30
2023-02-16T12:31:21.820Z,3.70
2023-02-16T12:32:21.692Z,2.30
2023-02-16T12:33:21.681Z,1.80
2023-02-16T12:34:21.673Z,2.80
2023-02-16T12:35:21.709Z,1.40
2023-02-16T12:36:21.661Z,1.40
2023-02-16T12:37:21.672Z,1.40
2023-02-16T12:38:21.666Z,3.80
2023-02-16T12:39:21.663Z,4.10
2023-02-16T12:40:21.641Z,2.00
2023-02-16T12:41:21.656Z,2.70
2023-02-16T12:42:21.639Z,1.40
2023-02-16T12:43:21.646Z,1.70
2023-02-16T12:44:21.620Z,2.50
2023-02-16T12:45:21.633Z,1.60
2023-02-16T12:46:23.843Z,1.70
2023-02-16T12:47:21.610Z,1.90
2023-02-16T12:48:21.600Z,1.50
2023-02-16T12:49:21.602Z,1.50
2023-02-16T12:50:21.597Z,2.50
2023-02-16T12:51:21.633Z,1.70
2023-02-16T12:52:21.588Z,1.60
2023-02-16T12:53:21.600Z,1.90
2023-02-16T12:54:21.594Z,1.30
2023-02-16T12:55:21.597Z,2.10
2023-02-16T12:56:21.561Z,3.90
2023-02-16T12:57:21.585Z,1.40
2023-02-16T12:58:21.562Z,2.80
2023-02-16T12:59:21.569Z,1.40
2023-02-16T13:00:21.547Z,1.50
2023-02-16T13:01:21.574Z,1.30
2023-02-16T13:02:21.574Z,2.30
2023-02-16T13:03:21.578Z,1.40
2023-02-16T13:04:21.523Z,2.90
2023-02-16T13:05:21.540Z,3.10
2023-02-16T13:06:21.527Z,1.40
2023-02-16T13:07:21.539Z,1.50
2023-02-16T13:08:21.519Z,3.00
2023-02-16T13:09:21.526Z,1.40
2023-02-16T13:10:21.505Z,2.10
2023-02-16T13:11:21.551Z,5.20
2023-02-16T13:12:21.497Z,3.70
2023-02-16T13:13:21.505Z,1.90
2023-02-16T13:14:21.484Z,1.40
2023-02-16T13:15:21.487Z,2.20
2023-02-16T13:16:30.176Z,1.80
2023-02-16T13:17:21.481Z,1.90
2023-02-16T13:18:21.482Z,2.70
2023-02-16T13:19:21.473Z,2.20